sensor_id;sensor_type;location;lat;lon;timestamp;pressure;altitude;pressure_sealevel;temperature;humidity
9717;BME280;4897;43.570;27.832;2023-05-22T00:00:19;98760.28;;;15.17;100.00
9717;BME280;4897;43.570;27.832;2023-05-22T00:02:46;98746.00;;;15.25;100.00
9717;BME280;4897;43.570;27.832;2023-05-22T00:05:15;98668.78;;;14.77;100.00
9717;BME280;4897;43.570;27.832;2023-05-22T00:07:44;98749.34;;;15.35;100.00
9717;BME280;4897;43.570;27.832;2023-05-22T00:10:10;98558.56;;;14.19;100.00
9717;BME280;4897;43.570;27.832;2023-05-22T00:12:38;98728.16;;;15.07;100.00
9717;BME280;4897;43.570;27.832;2023-05-22T00:15:05;98746.31;;;15.13;100.00
9717;BME280;4897;43.570;27.832;2023-05-22T00:17:32;98695.00;;;14.75;100.00
9717;BME280;4897;43.570;27.832;2023-05-22T00:19:59;98748.66;;;15.16;100.00
9717;BME280;4897;43.570;27.832;2023-05-22T00:22:33;98757.75;;;15.15;100.00
9717;BME280;4897;43.570;27.832;2023-05-22T00:25:02;98738.25;;;14.97;100.00
9717;BME280;4897;43.570;27.832;2023-05-22T00:27:29;98725.28;;;14.77;100.00
9717;BME280;4897;43.570;27.832;2023-05-22T00:29:57;98761.63;;;14.81;100.00
9717;BME280;4897;43.570;27.832;2023-05-22T00:32:24;98754.34;;;14.65;100.00
9717;BME280;4897;43.570;27.832;2023-05-22T00:34:51;98773.75;;;14.77;100.00
9717;BME280;4897;43.570;27.832;2023-05-22T00:37:18;98770.53;;;14.81;100.00
9717;BME280;4897;43.570;27.832;2023-05-22T00:39:45;98763.78;;;14.77;100.00
9717;BME280;4897;43.570;27.832;2023-05-22T00:42:13;98813.38;;;14.59;100.00
9717;BME280;4897;43.570;27.832;2023-05-22T00:44:40;98747.91;;;14.42;100.00
9717;BME280;4897;43.570;27.832;2023-05-22T00:47:07;98774.22;;;14.64;100.00
9717;BME280;4897;43.570;27.832;2023-05-22T00:49:34;98768.13;;;14.54;100.00
9717;BME280;4897;43.570;27.832;2023-05-22T00:52:01;98738.59;;;14.20;100.00
9717;BME280;4897;43.570;27.832;2023-05-22T00:54:29;98757.75;;;14.25;100.00
9717;BME280;4897;43.570;27.832;2023-05-22T00:56:57;98741.41;;;14.19;100.00
9717;BME280;4897;43.570;27.832;2023-05-22T00:59:27;98770.75;;;14.30;100.00
9717;BME280;4897;43.570;27.832;2023-05-22T01:01:55;98758.00;;;14.06;100.00
9717;BME280;4897;43.570;27.832;2023-05-22T01:04:24;98761.16;;;14.02;100.00
9717;BME280;4897;43.570;27.832;2023-05-22T01:06:57;98761.16;;;14.02;100.00
9717;BME280;4897;43.570;27.832;2023-05-22T01:09:27;98784.78;;;14.16;100.00
9717;BME280;4897;43.570;27.832;2023-05-22T01:12:04;98770.66;;;14.14;100.00
9717;BME280;4897;43.570;27.832;2023-05-22T01:14:39;98773.34;;;14.14;100.00
9717;BME280;4897;43.570;27.832;2023-05-22T01:17:15;98757.53;;;14.11;100.00
9717;BME280;4897;43.570;27.832;2023-05-22T01:19:55;98745.59;;;14.05;100.00
9717;BME280;4897;43.570;27.832;2023-05-22T01:22:49;98703.56;;;13.71;100.00
9717;BME280;4897;43.570;27.832;2023-05-22T01:25:45;98774.97;;;14.07;100.00
9717;BME280;4897;43.570;27.832;2023-05-22T01:28:38;98769.44;;;14.08;100.00
9717;BME280;4897;43.570;27.832;2023-05-22T01:31:09;98761.16;;;14.02;100.00
9717;BME280;4897;43.570;27.832;2023-05-22T01:33:42;98723.63;;;13.76;100.00
9717;BME280;4897;43.570;27.832;2023-05-22T01:36:12;98767.94;;;14.06;100.00
9717;BME280;4897;43.570;27.832;2023-05-22T01:38:40;98696.13;;;13.56;100.00
9717;BME280;4897;43.570;27.832;2023-05-22T01:41:08;98748.69;;;13.85;100.00
9717;BME280;4897;43.570;27.832;2023-05-22T01:43:38;98751.50;;;13.83;100.00
9717;BME280;4897;43.570;27.832;2023-05-22T01:46:05;98770.56;;;13.98;100.00
9717;BME280;4897;43.570;27.832;2023-05-22T01:48:34;98771.22;;;13.92;100.00
9717;BME280;4897;43.570;27.832;2023-05-22T01:51:04;98765.84;;;13.92;100.00
9717;BME280;4897;43.570;27.832;2023-05-22T01:53:39;98782.59;;;13.86;100.00
9717;BME280;4897;43.570;27.832;2023-05-22T01:56:11;98703.94;;;13.42;100.00
9717;BME280;4897;43.570;27.832;2023-05-22T01:58:44;98768.81;;;13.81;100.00
9717;BME280;4897;43.570;27.832;2023-05-22T02:01:14;98762.69;;;13.71;100.00
9717;BME280;4897;43.570;27.832;2023-05-22T02:03:44;98707.84;;;13.47;100.00
9717;BME280;4897;43.570;27.832;2023-05-22T02:06:13;98769.88;;;13.96;100.00
9717;BME280;4897;43.570;27.832;2023-05-22T02:08:41;98766.72;;;14.00;100.00
9717;BME280;4897;43.570;27.832;2023-05-22T02:11:10;98766.06;;;14.06;100.00
9717;BME280;4897;43.570;27.832;2023-05-22T02:13:38;98782.06;;;14.08;100.00
9717;BME280;4897;43.570;27.832;2023-05-22T02:16:05;98759.00;;;13.97;100.00
9717;BME280;4897;43.570;27.832;2023-05-22T02:18:32;98741.19;;;13.71;100.00
9717;BME280;4897;43.570;27.832;2023-05-22T02:21:01;98769.53;;;13.91;100.00
9717;BME280;4897;43.570;27.832;2023-05-22T02:23:30;98764.44;;;13.80;100.00
9717;BME280;4897;43.570;27.832;2023-05-22T02:25:57;98737.78;;;13.60;100.00
9717;BME280;4897;43.570;27.832;2023-05-22T02:28:23;98789.47;;;13.80;100.00
9717;BME280;4897;43.570;27.832;2023-05-22T02:30:50;98718.63;;;13.55;100.00
9717;BME280;4897;43.570;27.832;2023-05-22T02:33:17;98784.13;;;13.88;100.00
9717;BME280;4897;43.570;27.832;2023-05-22T02:35:44;98711.81;;;13.43;100.00
9717;BME280;4897;43.570;27.832;2023-05-22T02:38:13;98643.53;;;12.95;100.00
9717;BME280;4897;43.570;27.832;2023-05-22T02:40:41;98807.16;;;13.91;100.00
9717;BME280;4897;43.570;27.832;2023-05-22T02:43:11;98723.41;;;13.44;100.00
9717;BME280;4897;43.570;27.832;2023-05-22T02:45:38;98785.72;;;13.73;100.00
9717;BME280;4897;43.570;27.832;2023-05-22T02:48:05;98717.75;;;13.47;100.00
9717;BME280;4897;43.570;27.832;2023-05-22T02:50:34;98773.78;;;13.68;100.00
9717;BME280;4897;43.570;27.832;2023-05-22T02:53:01;98787.13;;;13.85;100.00
9717;BME280;4897;43.570;27.832;2023-05-22T02:55:30;98758.59;;;13.58;100.00
9717;BME280;4897;43.570;27.832;2023-05-22T02:57:56;98768.91;;;13.71;100.00
9717;BME280;4897;43.570;27.832;2023-05-22T03:00:23;98788.09;;;13.76;100.00
9717;BME280;4897;43.570;27.832;2023-05-22T03:02:50;98784.41;;;13.77;100.00
9717;BME280;4897;43.570;27.832;2023-05-22T03:05:17;98796.69;;;13.80;100.00
9717;BME280;4897;43.570;27.832;2023-05-22T03:07:44;98782.56;;;13.78;100.00
9717;BME280;4897;43.570;27.832;2023-05-22T03:10:11;98782.56;;;13.78;100.00
9717;BME280;4897;43.570;27.832;2023-05-22T03:12:39;98777.22;;;13.86;100.00
9717;BME280;4897;43.570;27.832;2023-05-22T03:15:09;98770.19;;;13.85;100.00
9717;BME280;4897;43.570;27.832;2023-05-22T03:17:36;98766.41;;;13.70;100.00
9717;BME280;4897;43.570;27.832;2023-05-22T03:20:04;98777.22;;;13.86;100.00
9717;BME280;4897;43.570;27.832;2023-05-22T03:22:31;98787.38;;;14.00;100.00
9717;BME280;4897;43.570;27.832;2023-05-22T03:24:57;98778.53;;;14.07;100.00
9717;BME280;4897;43.570;27.832;2023-05-22T03:27:24;98761.31;;;13.92;100.00
9717;BME280;4897;43.570;27.832;2023-05-22T03:29:53;98774.31;;;14.05;100.00
9717;BME280;4897;43.570;27.832;2023-05-22T03:32:20;98777.50;;;14.08;100.00
9717;BME280;4897;43.570;27.832;2023-05-22T03:34:46;98747.03;;;13.92;100.00
9717;BME280;4897;43.570;27.832;2023-05-22T03:37:13;98767.09;;;14.05;100.00
9717;BME280;4897;43.570;27.832;2023-05-22T03:39:40;98768.03;;;13.96;100.00
9717;BME280;4897;43.570;27.832;2023-05-22T03:42:07;98778.56;;;14.15;100.00
9717;BME280;4897;43.570;27.832;2023-05-22T03:44:34;98756.66;;;14.02;100.00
9717;BME280;4897;43.570;27.832;2023-05-22T03:47:03;98770.00;;;14.20;100.00
9717;BME280;4897;43.570;27.832;2023-05-22T03:49:30;98726.63;;;13.81;100.00
9717;BME280;4897;43.570;27.832;2023-05-22T03:51:57;98776.97;;;14.30;100.00
9717;BME280;4897;43.570;27.832;2023-05-22T03:54:24;98768.75;;;14.40;100.00
9717;BME280;4897;43.570;27.832;2023-05-22T03:56:54;98756.59;;;14.28;100.00
9717;BME280;4897;43.570;27.832;2023-05-22T03:59:21;98775.88;;;14.57;100.00
9717;BME280;4897;43.570;27.832;2023-05-22T04:01:48;98743.56;;;14.49;100.00
9717;BME280;4897;43.570;27.832;2023-05-22T04:04:17;98741.19;;;14.46;100.00
9717;BME280;4897;43.570;27.832;2023-05-22T04:06:44;98757.22;;;14.64;100.00
9717;BME280;4897;43.570;27.832;2023-05-22T04:09:11;98758.06;;;14.64;100.00
9717;BME280;4897;43.570;27.832;2023-05-22T04:11:39;98754.22;;;14.75;100.00
9717;BME280;4897;43.570;27.832;2023-05-22T04:14:06;98731.78;;;14.58;100.00
9717;BME280;4897;43.570;27.832;2023-05-22T04:16:34;98744.63;;;14.72;100.00
9717;BME280;4897;43.570;27.832;2023-05-22T04:19:00;98692.44;;;14.49;100.00
9717;BME280;4897;43.570;27.832;2023-05-22T04:21:29;98586.78;;;14.07;100.00
9717;BME280;4897;43.570;27.832;2023-05-22T04:23:58;98732.84;;;15.13;100.00
9717;BME280;4897;43.570;27.832;2023-05-22T04:26:26;98740.94;;;15.21;100.00
9717;BME280;4897;43.570;27.832;2023-05-22T04:28:54;98741.94;;;15.37;100.00
9717;BME280;4897;43.570;27.832;2023-05-22T04:31:21;98675.81;;;15.10;100.00
9717;BME280;4897;43.570;27.832;2023-05-22T04:33:48;98742.19;;;15.82;100.00
9717;BME280;4897;43.570;27.832;2023-05-22T04:36:15;98739.09;;;16.01;100.00
9717;BME280;4897;43.570;27.832;2023-05-22T04:38:48;98747.16;;;16.09;100.00
9717;BME280;4897;43.570;27.832;2023-05-22T04:41:14;98733.56;;;16.33;100.00
9717;BME280;4897;43.570;27.832;2023-05-22T04:43:43;98738.13;;;16.63;100.00
9717;BME280;4897;43.570;27.832;2023-05-22T04:46:12;98751.25;;;16.97;100.00
9717;BME280;4897;43.570;27.832;2023-05-22T04:48:39;98681.97;;;16.82;100.00
9717;BME280;4897;43.570;27.832;2023-05-22T04:51:06;98736.59;;;17.14;100.00
9717;BME280;4897;43.570;27.832;2023-05-22T04:53:34;98731.56;;;17.26;100.00
9717;BME280;4897;43.570;27.832;2023-05-22T04:56:05;98741.00;;;17.30;100.00
9717;BME280;4897;43.570;27.832;2023-05-22T04:58:32;98738.97;;;17.46;100.00
9717;BME280;4897;43.570;27.832;2023-05-22T05:00:59;98669.22;;;17.27;100.00
9717;BME280;4897;43.570;27.832;2023-05-22T05:03:30;98723.13;;;17.95;100.00
9717;BME280;4897;43.570;27.832;2023-05-22T05:05:57;98728.63;;;18.02;100.00
9717;BME280;4897;43.570;27.832;2023-05-22T05:08:24;98536.47;;;16.87;100.00
9717;BME280;4897;43.570;27.832;2023-05-22T05:10:51;98694.00;;;17.97;100.00
9717;BME280;4897;43.570;27.832;2023-05-22T05:13:19;98695.47;;;18.14;100.00
9717;BME280;4897;43.570;27.832;2023-05-22T05:15:47;98722.94;;;18.62;100.00
9717;BME280;4897;43.570;27.832;2023-05-22T05:18:14;98711.63;;;18.94;100.00
9717;BME280;4897;43.570;27.832;2023-05-22T05:20:41;98705.44;;;19.28;100.00
9717;BME280;4897;43.570;27.832;2023-05-22T05:23:08;98694.00;;;19.53;100.00
9717;BME280;4897;43.570;27.832;2023-05-22T05:25:35;98718.66;;;19.92;100.00
9717;BME280;4897;43.570;27.832;2023-05-22T05:28:03;98722.09;;;20.08;100.00
9717;BME280;4897;43.570;27.832;2023-05-22T05:30:36;98715.50;;;20.77;100.00
9717;BME280;4897;43.570;27.832;2023-05-22T05:33:03;98685.88;;;21.08;100.00
9717;BME280;4897;43.570;27.832;2023-05-22T05:35:31;98722.28;;;21.46;100.00
9717;BME280;4897;43.570;27.832;2023-05-22T05:37:58;98698.59;;;21.80;100.00
9717;BME280;4897;43.570;27.832;2023-05-22T05:40:24;98711.38;;;21.46;100.00
9717;BME280;4897;43.570;27.832;2023-05-22T05:42:51;98708.03;;;21.71;100.00
9717;BME280;4897;43.570;27.832;2023-05-22T05:45:18;98709.69;;;22.04;100.00
9717;BME280;4897;43.570;27.832;2023-05-22T05:47:47;98712.00;;;22.52;100.00
9717;BME280;4897;43.570;27.832;2023-05-22T05:50:13;98706.28;;;23.04;100.00
9717;BME280;4897;43.570;27.832;2023-05-22T05:52:41;98702.53;;;22.98;100.00
9717;BME280;4897;43.570;27.832;2023-05-22T05:55:08;98718.66;;;23.31;100.00
9717;BME280;4897;43.570;27.832;2023-05-22T05:57:35;98726.44;;;23.59;100.00
9717;BME280;4897;43.570;27.832;2023-05-22T06:00:03;98707.00;;;23.73;100.00
9717;BME280;4897;43.570;27.832;2023-05-22T06:02:33;98714.25;;;24.04;100.00
9717;BME280;4897;43.570;27.832;2023-05-22T06:05:02;98724.44;;;24.33;100.00
9717;BME280;4897;43.570;27.832;2023-05-22T06:07:29;98717.97;;;24.82;100.00
9717;BME280;4897;43.570;27.832;2023-05-22T06:09:56;98705.84;;;24.90;100.00
9717;BME280;4897;43.570;27.832;2023-05-22T06:12:23;98698.16;;;25.10;100.00
9717;BME280;4897;43.570;27.832;2023-05-22T06:14:50;98726.44;;;25.33;100.00
9717;BME280;4897;43.570;27.832;2023-05-22T06:17:17;98716.06;;;25.24;100.00
9717;BME280;4897;43.570;27.832;2023-05-22T06:19:44;98706.22;;;25.34;100.00
9717;BME280;4897;43.570;27.832;2023-05-22T06:22:13;98738.81;;;24.95;100.00
9717;BME280;4897;43.570;27.832;2023-05-22T06:24:40;98666.28;;;24.44;100.00
9717;BME280;4897;43.570;27.832;2023-05-22T06:27:07;98733.41;;;24.40;100.00
9717;BME280;4897;43.570;27.832;2023-05-22T06:29:34;98740.28;;;24.07;100.00
9717;BME280;4897;43.570;27.832;2023-05-22T06:32:01;98702.50;;;23.79;100.00
9717;BME280;4897;43.570;27.832;2023-05-22T06:34:28;98737.00;;;23.98;100.00
9717;BME280;4897;43.570;27.832;2023-05-22T06:36:55;98727.00;;;24.10;100.00
9717;BME280;4897;43.570;27.832;2023-05-22T06:39:24;98736.13;;;24.22;100.00
9717;BME280;4897;43.570;27.832;2023-05-22T06:41:51;98716.06;;;24.28;100.00
9717;BME280;4897;43.570;27.832;2023-05-22T06:44:18;98723.28;;;24.77;100.00
9717;BME280;4897;43.570;27.832;2023-05-22T06:46:45;98731.84;;;24.81;100.00
9717;BME280;4897;43.570;27.832;2023-05-22T06:49:12;98715.13;;;24.71;100.00
9717;BME280;4897;43.570;27.832;2023-05-22T06:51:40;98692.81;;;24.74;95.50
9717;BME280;4897;43.570;27.832;2023-05-22T06:54:10;98725.53;;;25.10;94.69
9717;BME280;4897;43.570;27.832;2023-05-22T06:56:39;98726.94;;;24.35;100.00
9717;BME280;4897;43.570;27.832;2023-05-22T06:59:09;98640.31;;;24.35;97.27
9717;BME280;4897;43.570;27.832;2023-05-22T07:01:37;98682.41;;;24.82;93.67
9717;BME280;4897;43.570;27.832;2023-05-22T07:04:04;98706.41;;;25.21;77.52
9717;BME280;4897;43.570;27.832;2023-05-22T07:06:33;98720.63;;;25.00;81.21
9717;BME280;4897;43.570;27.832;2023-05-22T07:09:03;98720.72;;;24.94;89.31
9717;BME280;4897;43.570;27.832;2023-05-22T07:11:30;98639.94;;;24.61;83.40
9717;BME280;4897;43.570;27.832;2023-05-22T07:14:00;98693.25;;;24.71;81.85
9717;BME280;4897;43.570;27.832;2023-05-22T07:16:29;98715.81;;;24.84;80.07
9717;BME280;4897;43.570;27.832;2023-05-22T07:18:56;98722.88;;;25.03;78.98
9717;BME280;4897;43.570;27.832;2023-05-22T07:21:23;98728.66;;;24.66;81.11
9717;BME280;4897;43.570;27.832;2023-05-22T07:23:50;98720.59;;;24.71;80.88
9717;BME280;4897;43.570;27.832;2023-05-22T07:26:17;98710.50;;;24.71;74.88
9717;BME280;4897;43.570;27.832;2023-05-22T07:28:49;98703.38;;;25.00;75.00
9717;BME280;4897;43.570;27.832;2023-05-22T07:31:17;98704.38;;;25.17;73.24
9717;BME280;4897;43.570;27.832;2023-05-22T07:33:44;98681.88;;;24.74;68.06
9717;BME280;4897;43.570;27.832;2023-05-22T07:36:11;98710.91;;;25.16;68.51
9717;BME280;4897;43.570;27.832;2023-05-22T07:38:38;98702.16;;;25.37;68.98
9717;BME280;4897;43.570;27.832;2023-05-22T07:41:05;98704.59;;;26.03;63.48
9717;BME280;4897;43.570;27.832;2023-05-22T07:43:32;98690.84;;;27.50;54.54
9717;BME280;4897;43.570;27.832;2023-05-22T07:45:59;98695.41;;;29.25;48.78
9717;BME280;4897;43.570;27.832;2023-05-22T07:48:28;98702.13;;;30.07;46.36
9717;BME280;4897;43.570;27.832;2023-05-22T07:50:54;98639.06;;;29.42;45.79
9717;BME280;4897;43.570;27.832;2023-05-22T07:53:22;98666.31;;;28.85;45.59
9717;BME280;4897;43.570;27.832;2023-05-22T07:55:49;98680.16;;;28.47;46.20
9717;BME280;4897;43.570;27.832;2023-05-22T07:58:16;98634.88;;;27.73;47.09
9717;BME280;4897;43.570;27.832;2023-05-22T08:00:43;98639.31;;;27.96;47.38
9717;BME280;4897;43.570;27.832;2023-05-22T08:03:09;98709.91;;;28.93;45.68
9717;BME280;4897;43.570;27.832;2023-05-22T08:05:38;98695.63;;;27.77;46.88
9717;BME280;4897;43.570;27.832;2023-05-22T08:08:05;98686.22;;;28.06;48.31
9717;BME280;4897;43.570;27.832;2023-05-22T08:10:35;98686.69;;;29.38;45.66
9717;BME280;4897;43.570;27.832;2023-05-22T08:13:02;98689.56;;;28.73;44.02
9717;BME280;4897;43.570;27.832;2023-05-22T08:15:30;98688.34;;;29.39;42.27
9717;BME280;4897;43.570;27.832;2023-05-22T08:17:57;98670.72;;;28.00;44.67
9717;BME280;4897;43.570;27.832;2023-05-22T08:20:24;98692.31;;;30.26;41.30
9717;BME280;4897;43.570;27.832;2023-05-22T08:22:52;98691.88;;;31.82;38.38
9717;BME280;4897;43.570;27.832;2023-05-22T08:25:20;98690.94;;;28.70;42.17
9717;BME280;4897;43.570;27.832;2023-05-22T08:27:47;98693.88;;;29.39;42.28
9717;BME280;4897;43.570;27.832;2023-05-22T08:30:15;98685.31;;;30.65;40.77
9717;BME280;4897;43.570;27.832;2023-05-22T08:32:43;98641.25;;;31.91;36.99
9717;BME280;4897;43.570;27.832;2023-05-22T08:35:10;98681.03;;;32.15;36.71
9717;BME280;4897;43.570;27.832;2023-05-22T08:37:38;98626.75;;;30.48;38.92
9717;BME280;4897;43.570;27.832;2023-05-22T08:40:09;98691.56;;;29.94;40.86
9717;BME280;4897;43.570;27.832;2023-05-22T08:42:37;98704.38;;;30.15;40.66
9717;BME280;4897;43.570;27.832;2023-05-22T08:45:05;98697.66;;;29.33;40.82
9717;BME280;4897;43.570;27.832;2023-05-22T08:47:33;98675.25;;;30.34;39.17
9717;BME280;4897;43.570;27.832;2023-05-22T08:50:01;98707.88;;;29.10;40.27
9717;BME280;4897;43.570;27.832;2023-05-22T08:52:33;98509.31;;;29.07;39.84
9717;BME280;4897;43.570;27.832;2023-05-22T08:55:03;98692.16;;;31.80;38.37
9717;BME280;4897;43.570;27.832;2023-05-22T08:57:33;98626.38;;;34.01;34.91
9717;BME280;4897;43.570;27.832;2023-05-22T09:00:00;98668.22;;;33.42;34.95
9717;BME280;4897;43.570;27.832;2023-05-22T09:02:28;98629.69;;;31.04;37.88
9717;BME280;4897;43.570;27.832;2023-05-22T09:04:55;98700.25;;;30.69;38.05
9717;BME280;4897;43.570;27.832;2023-05-22T09:07:22;98685.63;;;30.17;39.73
9717;BME280;4897;43.570;27.832;2023-05-22T09:09:52;98673.78;;;30.84;39.48
9717;BME280;4897;43.570;27.832;2023-05-22T09:12:19;98674.13;;;30.87;38.39
9717;BME280;4897;43.570;27.832;2023-05-22T09:14:47;98676.75;;;29.68;40.77
9717;BME280;4897;43.570;27.832;2023-05-22T09:17:17;98665.78;;;29.42;42.06
9717;BME280;4897;43.570;27.832;2023-05-22T09:19:45;98686.88;;;29.94;41.59
9717;BME280;4897;43.570;27.832;2023-05-22T09:22:13;98660.94;;;29.54;42.52
9717;BME280;4897;43.570;27.832;2023-05-22T09:24:41;98676.81;;;28.62;43.77
9717;BME280;4897;43.570;27.832;2023-05-22T09:27:10;98644.94;;;28.22;44.59
9717;BME280;4897;43.570;27.832;2023-05-22T09:29:49;98673.47;;;28.00;46.45
9717;BME280;4897;43.570;27.832;2023-05-22T09:32:16;98696.53;;;27.32;48.39
9717;BME280;4897;43.570;27.832;2023-05-22T09:34:43;98670.66;;;27.28;48.31
9717;BME280;4897;43.570;27.832;2023-05-22T09:37:11;98671.25;;;27.30;47.98
9717;BME280;4897;43.570;27.832;2023-05-22T09:39:38;98650.06;;;26.41;51.38
9717;BME280;4897;43.570;27.832;2023-05-22T09:42:08;98682.66;;;26.26;53.24
9717;BME280;4897;43.570;27.832;2023-05-22T09:44:36;98678.09;;;27.00;51.27
9717;BME280;4897;43.570;27.832;2023-05-22T09:47:05;98659.97;;;26.70;52.09
9717;BME280;4897;43.570;27.832;2023-05-22T09:49:35;98682.75;;;26.82;52.10
9717;BME280;4897;43.570;27.832;2023-05-22T09:52:05;98671.41;;;28.72;45.10
9717;BME280;4897;43.570;27.832;2023-05-22T09:54:34;98663.41;;;31.61;40.38
9717;BME280;4897;43.570;27.832;2023-05-22T09:57:05;98643.75;;;33.21;37.37
9717;BME280;4897;43.570;27.832;2023-05-22T09:59:35;98650.72;;;31.50;38.00
9717;BME280;4897;43.570;27.832;2023-05-22T10:02:07;98661.91;;;30.16;39.97
9717;BME280;4897;43.570;27.832;2023-05-22T10:04:36;98661.72;;;29.17;41.91
9717;BME280;4897;43.570;27.832;2023-05-22T10:07:05;98661.22;;;29.20;41.85
9717;BME280;4897;43.570;27.832;2023-05-22T10:09:34;98653.53;;;29.28;40.95
9717;BME280;4897;43.570;27.832;2023-05-22T10:12:05;98664.78;;;31.59;38.62
9717;BME280;4897;43.570;27.832;2023-05-22T10:14:34;98645.59;;;33.30;35.42
9717;BME280;4897;43.570;27.832;2023-05-22T10:17:05;98635.25;;;34.27;34.28
9717;BME280;4897;43.570;27.832;2023-05-22T10:19:36;98645.66;;;33.25;35.45
9717;BME280;4897;43.570;27.832;2023-05-22T10:22:05;98659.53;;;31.87;36.91
9717;BME280;4897;43.570;27.832;2023-05-22T10:24:32;98643.94;;;30.75;38.54
9717;BME280;4897;43.570;27.832;2023-05-22T10:26:59;98605.22;;;29.47;41.08
9717;BME280;4897;43.570;27.832;2023-05-22T10:29:32;98647.00;;;29.70;41.53
9717;BME280;4897;43.570;27.832;2023-05-22T10:32:07;98635.78;;;31.21;39.45
9717;BME280;4897;43.570;27.832;2023-05-22T10:34:41;98588.56;;;32.85;36.59
9717;BME280;4897;43.570;27.832;2023-05-22T10:37:25;98612.25;;;33.98;34.62
9717;BME280;4897;43.570;27.832;2023-05-22T10:40:03;98641.59;;;31.44;37.25
9717;BME280;4897;43.570;27.832;2023-05-22T10:42:33;98641.69;;;30.62;38.30
9717;BME280;4897;43.570;27.832;2023-05-22T10:45:09;98566.19;;;29.65;39.31
9717;BME280;4897;43.570;27.832;2023-05-22T10:47:37;98631.50;;;29.28;41.27
9717;BME280;4897;43.570;27.832;2023-05-22T10:50:07;98630.06;;;29.57;41.34
9717;BME280;4897;43.570;27.832;2023-05-22T10:52:34;98437.16;;;28.63;40.78
9717;BME280;4897;43.570;27.832;2023-05-22T10:55:05;98634.09;;;29.39;41.14
9717;BME280;4897;43.570;27.832;2023-05-22T10:57:33;98615.00;;;29.01;41.89
9717;BME280;4897;43.570;27.832;2023-05-22T11:00:11;98626.16;;;29.48;41.23
9717;BME280;4897;43.570;27.832;2023-05-22T11:02:41;98574.84;;;30.35;44.72
9717;BME280;4897;43.570;27.832;2023-05-22T11:05:32;98623.03;;;29.34;42.81
9717;BME280;4897;43.570;27.832;2023-05-22T11:08:11;98627.19;;;28.78;43.10
9717;BME280;4897;43.570;27.832;2023-05-22T11:10:50;98630.44;;;29.29;42.43
9717;BME280;4897;43.570;27.832;2023-05-22T11:13:18;98629.91;;;30.10;41.36
9717;BME280;4897;43.570;27.832;2023-05-22T11:15:47;98558.00;;;28.43;46.44
9717;BME280;4897;43.570;27.832;2023-05-22T11:18:15;98669.13;;;25.73;100.00
9717;BME280;4897;43.570;27.832;2023-05-22T11:20:42;98705.00;;;22.75;100.00
9717;BME280;4897;43.570;27.832;2023-05-22T11:23:10;98710.56;;;21.33;100.00
9717;BME280;4897;43.570;27.832;2023-05-22T11:25:39;98688.22;;;20.38;100.00
9717;BME280;4897;43.570;27.832;2023-05-22T11:28:09;98679.75;;;19.79;100.00
9717;BME280;4897;43.570;27.832;2023-05-22T11:30:37;98672.72;;;19.50;100.00
9717;BME280;4897;43.570;27.832;2023-05-22T11:33:05;98655.41;;;19.30;100.00
9717;BME280;4897;43.570;27.832;2023-05-22T11:35:36;98640.13;;;19.44;100.00
9717;BME280;4897;43.570;27.832;2023-05-22T11:38:04;98663.81;;;19.63;100.00
9717;BME280;4897;43.570;27.832;2023-05-22T11:40:31;98615.75;;;19.23;100.00
9717;BME280;4897;43.570;27.832;2023-05-22T11:42:58;98668.19;;;19.36;100.00
9717;BME280;4897;43.570;27.832;2023-05-22T11:45:26;98460.44;;;17.90;100.00
9717;BME280;4897;43.570;27.832;2023-05-22T11:47:53;98668.47;;;19.41;100.00
9717;BME280;4897;43.570;27.832;2023-05-22T11:50:20;98625.59;;;19.30;100.00
9717;BME280;4897;43.570;27.832;2023-05-22T11:52:49;98644.53;;;19.85;100.00
9717;BME280;4897;43.570;27.832;2023-05-22T11:55:19;98626.88;;;20.09;100.00
9717;BME280;4897;43.570;27.832;2023-05-22T11:57:47;98632.28;;;20.76;100.00
9717;BME280;4897;43.570;27.832;2023-05-22T12:00:15;98641.50;;;20.95;100.00
9717;BME280;4897;43.570;27.832;2023-05-22T12:02:45;98616.38;;;20.60;100.00
9717;BME280;4897;43.570;27.832;2023-05-22T12:05:12;98631.06;;;21.11;100.00
9717;BME280;4897;43.570;27.832;2023-05-22T12:07:40;98630.38;;;21.55;100.00
9717;BME280;4897;43.570;27.832;2023-05-22T12:10:09;98618.78;;;21.99;100.00
9717;BME280;4897;43.570;27.832;2023-05-22T12:12:37;98631.16;;;22.39;100.00
9717;BME280;4897;43.570;27.832;2023-05-22T12:15:05;98628.75;;;22.62;100.00
9717;BME280;4897;43.570;27.832;2023-05-22T12:17:34;98622.25;;;22.57;100.00
9717;BME280;4897;43.570;27.832;2023-05-22T12:20:01;98625.59;;;22.65;100.00
9717;BME280;4897;43.570;27.832;2023-05-22T12:22:29;98622.81;;;22.34;100.00
9717;BME280;4897;43.570;27.832;2023-05-22T12:24:56;98628.63;;;22.44;100.00
9717;BME280;4897;43.570;27.832;2023-05-22T12:27:28;98617.88;;;22.49;100.00
9717;BME280;4897;43.570;27.832;2023-05-22T12:29:55;98613.50;;;22.48;100.00
9717;BME280;4897;43.570;27.832;2023-05-22T12:32:23;98611.81;;;22.47;100.00
9717;BME280;4897;43.570;27.832;2023-05-22T12:34:51;98609.75;;;22.43;100.00
9717;BME280;4897;43.570;27.832;2023-05-22T12:37:21;98579.22;;;22.34;100.00
9717;BME280;4897;43.570;27.832;2023-05-22T12:39:53;98617.25;;;22.54;100.00
9717;BME280;4897;43.570;27.832;2023-05-22T12:42:20;98617.78;;;22.31;100.00
9717;BME280;4897;43.570;27.832;2023-05-22T12:44:54;98629.63;;;22.12;100.00
9717;BME280;4897;43.570;27.832;2023-05-22T12:47:22;98634.50;;;21.97;100.00
9717;BME280;4897;43.570;27.832;2023-05-22T12:49:49;98624.75;;;21.57;100.00
9717;BME280;4897;43.570;27.832;2023-05-22T12:52:16;98646.06;;;21.79;100.00
9717;BME280;4897;43.570;27.832;2023-05-22T12:54:44;98646.47;;;21.83;100.00
9717;BME280;4897;43.570;27.832;2023-05-22T12:57:11;98640.19;;;21.89;100.00
9717;BME280;4897;43.570;27.832;2023-05-22T12:59:38;98643.09;;;22.00;100.00
9717;BME280;4897;43.570;27.832;2023-05-22T13:02:06;98633.78;;;22.21;100.00
9717;BME280;4897;43.570;27.832;2023-05-22T13:04:33;98638.78;;;22.24;100.00
9717;BME280;4897;43.570;27.832;2023-05-22T13:07:01;98603.75;;;21.90;100.00
9717;BME280;4897;43.570;27.832;2023-05-22T13:09:28;98633.22;;;22.06;100.00
9717;BME280;4897;43.570;27.832;2023-05-22T13:11:55;98513.75;;;21.72;100.00